Ozark Regional Airport
KBPK : now visible

Airfield :











YOU CAN JOIN US ON...

 
LOGIN :

Register | Disclaimer

   EN    FR    IT 

 









Legend :    VFR   Marginal VFR   IFR   Intensive IFR   Very Intensive IFR
Visi :
Ceiling :
>= 8 km
>= 3000ft
5 to 8 km
1000 to 3000 ft
1500m to 5 km
500 to 1000 ft
800 to 1500m
200 to 500 ft
< 800m
< 200 ft
Symbols :   Thunderstorms  Fog  Heavy snow  Heavy precipitations  Wind > 20 kt






- Airport Elevation : 928 ft


KBPK - Ozark Regional

CURRENT METAR :
  • 230153Z AUTO 13005KT 10SM CLR 12/M02 A3003 RMK AO2 SLP170 T01171017 TSNO

EXPIRED METARs :
  • 230053Z AUTO 11004KT 10SM CLR 13/M03 A3004 RMK AO2 SLP172 T01331028 TSNO
  • 222353Z AUTO 09005KT 10SM CLR 14/M03 A3004 RMK AO2 SLP174 T01391028 10161 20122 56024 TSNO

TAF KBPK
Valid from the 23 at 00:00 until the 24 at 00:00 UTC


222320Z 2300/2324 VRB05KT P6SM SCT060 BKN100
FM230400 13004KT P6SM VCSH OVC050
TEMPO 2305/2309 5SM -SHRA BR OVC025
FM231400 14007KT P6SM VCSH OVC025
FM231800 15010KT P6SM OVC020
KZME FIR / North America



MET'MAP, your aeronautical weather chart ! - Copyright ORBIFLY December 2007 - Disclaimer

ORBIFLY MET'MAP TEAM :

Programming & Development : Alexandra Zaïnal
Concept & original design : Baudouin d'Aumeries
Assistance for programming : Marc-Olivier Méhu
Technical & hardware support : Manuel Goepfert

Contact : metmap@orbifly.com




SOURCES & CREDITS :

   NOAA       Earth
Advisory